sensor_id;sensor_type;location;lat;lon;timestamp;pressure;altitude;pressure_sealevel;temperature;humidity
53246;BME280;39569;51.090;-1.786;2024-01-06T00:00:44;100390.16;;;17.31;43.07
53246;BME280;39569;51.090;-1.786;2024-01-06T00:03:15;100391.22;;;17.78;42.44
53246;BME280;39569;51.090;-1.786;2024-01-06T00:05:42;100392.81;;;17.97;41.98
53246;BME280;39569;51.090;-1.786;2024-01-06T00:08:09;100391.38;;;17.53;42.30
53246;BME280;39569;51.090;-1.786;2024-01-06T00:10:36;100404.56;;;17.07;43.22
53246;BME280;39569;51.090;-1.786;2024-01-06T00:13:02;100410.63;;;17.02;43.38
53246;BME280;39569;51.090;-1.786;2024-01-06T00:15:29;100402.72;;;16.83;43.43
53246;BME280;39569;51.090;-1.786;2024-01-06T00:17:56;100404.97;;;17.22;42.75
53246;BME280;39569;51.090;-1.786;2024-01-06T00:20:24;100401.34;;;17.52;42.58
53246;BME280;39569;51.090;-1.786;2024-01-06T00:22:51;100401.78;;;16.46;43.92
53246;BME280;39569;51.090;-1.786;2024-01-06T00:25:18;100409.44;;;16.73;43.58
53246;BME280;39569;51.090;-1.786;2024-01-06T00:27:44;100413.81;;;16.93;42.95
53246;BME280;39569;51.090;-1.786;2024-01-06T00:30:12;100409.97;;;16.64;43.73
53246;BME280;39569;51.090;-1.786;2024-01-06T00:32:39;100411.94;;;16.93;42.96
53246;BME280;39569;51.090;-1.786;2024-01-06T00:35:06;100416.75;;;17.09;42.71
53246;BME280;39569;51.090;-1.786;2024-01-06T00:37:34;100419.09;;;17.06;42.92
53246;BME280;39569;51.090;-1.786;2024-01-06T00:40:01;100428.56;;;16.90;42.72
53246;BME280;39569;51.090;-1.786;2024-01-06T00:42:29;100428.72;;;16.77;42.89
53246;BME280;39569;51.090;-1.786;2024-01-06T00:44:56;100423.09;;;16.79;42.69
53246;BME280;39569;51.090;-1.786;2024-01-06T00:47:22;100433.50;;;16.44;43.29
53246;BME280;39569;51.090;-1.786;2024-01-06T00:49:50;100428.16;;;16.68;42.85
53246;BME280;39569;51.090;-1.786;2024-01-06T00:52:16;100420.16;;;16.31;43.75
53246;BME280;39569;51.090;-1.786;2024-01-06T00:54:44;100423.56;;;16.51;43.87
53246;BME280;39569;51.090;-1.786;2024-01-06T00:57:12;100424.66;;;16.37;43.77
53246;BME280;39569;51.090;-1.786;2024-01-06T00:59:39;100430.28;;;16.35;43.91
53246;BME280;39569;51.090;-1.786;2024-01-06T01:02:05;100431.34;;;16.34;44.20
53246;BME280;39569;51.090;-1.786;2024-01-06T01:04:32;100418.94;;;16.27;44.41
53246;BME280;39569;51.090;-1.786;2024-01-06T01:06:59;100432.41;;;16.58;43.69
53246;BME280;39569;51.090;-1.786;2024-01-06T01:09:26;100441.72;;;16.31;44.65
53246;BME280;39569;51.090;-1.786;2024-01-06T01:11:54;100439.72;;;16.76;44.11
53246;BME280;39569;51.090;-1.786;2024-01-06T01:14:20;100435.72;;;16.60;43.89
53246;BME280;39569;51.090;-1.786;2024-01-06T01:16:48;100441.38;;;16.21;44.74
53246;BME280;39569;51.090;-1.786;2024-01-06T01:19:14;100441.53;;;16.26;44.40
53246;BME280;39569;51.090;-1.786;2024-01-06T01:21:41;100444.75;;;16.10;44.34
53246;BME280;39569;51.090;-1.786;2024-01-06T01:24:08;100451.53;;;16.19;44.47
53246;BME280;39569;51.090;-1.786;2024-01-06T01:26:35;100447.41;;;16.16;44.33
53246;BME280;39569;51.090;-1.786;2024-01-06T01:29:03;100451.34;;;16.76;43.39
53246;BME280;39569;51.090;-1.786;2024-01-06T01:31:29;100452.31;;;16.57;43.16
53246;BME280;39569;51.090;-1.786;2024-01-06T01:33:56;100445.53;;;16.17;43.95
53246;BME280;39569;51.090;-1.786;2024-01-06T01:36:23;100464.22;;;15.74;44.95
53246;BME280;39569;51.090;-1.786;2024-01-06T01:38:50;100460.69;;;16.42;43.49
53246;BME280;39569;51.090;-1.786;2024-01-06T01:41:17;100459.69;;;16.68;43.14
53246;BME280;39569;51.090;-1.786;2024-01-06T01:43:45;100466.50;;;16.77;43.44
53246;BME280;39569;51.090;-1.786;2024-01-06T01:46:13;100469.34;;;16.57;43.38
53246;BME280;39569;51.090;-1.786;2024-01-06T01:48:40;100478.41;;;16.32;43.81
53246;BME280;39569;51.090;-1.786;2024-01-06T01:51:07;100474.69;;;16.64;43.41
53246;BME280;39569;51.090;-1.786;2024-01-06T01:53:36;100489.44;;;16.61;43.43
53246;BME280;39569;51.090;-1.786;2024-01-06T01:56:03;100486.66;;;16.68;43.13
53246;BME280;39569;51.090;-1.786;2024-01-06T01:58:30;100487.03;;;16.47;43.20
53246;BME280;39569;51.090;-1.786;2024-01-06T02:00:57;100482.56;;;16.28;43.80
53246;BME280;39569;51.090;-1.786;2024-01-06T02:03:26;100485.78;;;16.74;43.21
53246;BME280;39569;51.090;-1.786;2024-01-06T02:05:52;100487.75;;;16.29;43.99
53246;BME280;39569;51.090;-1.786;2024-01-06T02:08:19;100486.50;;;16.88;42.71
53246;BME280;39569;51.090;-1.786;2024-01-06T02:10:46;100495.69;;;16.55;43.09
53246;BME280;39569;51.090;-1.786;2024-01-06T02:13:13;100491.56;;;16.53;43.40
53246;BME280;39569;51.090;-1.786;2024-01-06T02:15:40;100504.22;;;16.52;43.07
53246;BME280;39569;51.090;-1.786;2024-01-06T02:18:06;100506.59;;;16.36;43.13
53246;BME280;39569;51.090;-1.786;2024-01-06T02:20:34;100503.91;;;16.92;42.85
53246;BME280;39569;51.090;-1.786;2024-01-06T02:23:03;100504.63;;;16.81;43.00
53246;BME280;39569;51.090;-1.786;2024-01-06T02:25:30;100516.28;;;16.75;42.80
53246;BME280;39569;51.090;-1.786;2024-01-06T02:27:56;100512.88;;;16.86;42.56
53246;BME280;39569;51.090;-1.786;2024-01-06T02:30:23;100509.28;;;16.67;42.65
53246;BME280;39569;51.090;-1.786;2024-01-06T02:32:50;100514.13;;;16.83;42.74
53246;BME280;39569;51.090;-1.786;2024-01-06T02:35:16;100508.84;;;16.95;42.36
53246;BME280;39569;51.090;-1.786;2024-01-06T02:37:43;100512.34;;;17.20;41.85
53246;BME280;39569;51.090;-1.786;2024-01-06T02:40:12;100517.41;;;17.34;41.66
53246;BME280;39569;51.090;-1.786;2024-01-06T02:42:39;100514.47;;;17.18;41.91
53246;BME280;39569;51.090;-1.786;2024-01-06T02:45:07;100517.59;;;17.15;42.11
53246;BME280;39569;51.090;-1.786;2024-01-06T02:47:34;100523.34;;;17.00;41.95
53246;BME280;39569;51.090;-1.786;2024-01-06T02:50:01;100515.94;;;16.64;42.61
53246;BME280;39569;51.090;-1.786;2024-01-06T02:52:28;100526.06;;;16.38;43.54
53246;BME280;39569;51.090;-1.786;2024-01-06T02:54:54;100517.53;;;16.72;42.97
53246;BME280;39569;51.090;-1.786;2024-01-06T02:57:22;100517.44;;;16.85;42.72
53246;BME280;39569;51.090;-1.786;2024-01-06T02:59:49;100525.75;;;16.21;43.56
53246;BME280;39569;51.090;-1.786;2024-01-06T03:02:16;100524.88;;;16.27;43.90
53246;BME280;39569;51.090;-1.786;2024-01-06T03:04:43;100531.59;;;16.12;43.71
53246;BME280;39569;51.090;-1.786;2024-01-06T03:07:10;100525.63;;;16.41;43.03
53246;BME280;39569;51.090;-1.786;2024-01-06T03:09:36;100541.69;;;16.23;43.42
53246;BME280;39569;51.090;-1.786;2024-01-06T03:12:05;100536.06;;;16.93;42.15
53246;BME280;39569;51.090;-1.786;2024-01-06T03:14:34;100542.00;;;16.77;42.46
53246;BME280;39569;51.090;-1.786;2024-01-06T03:17:00;100547.25;;;16.28;43.01
53246;BME280;39569;51.090;-1.786;2024-01-06T03:19:28;100548.13;;;16.22;43.04
53246;BME280;39569;51.090;-1.786;2024-01-06T03:21:55;100551.81;;;15.83;43.91
53246;BME280;39569;51.090;-1.786;2024-01-06T03:24:22;100553.56;;;16.09;43.36
53246;BME280;39569;51.090;-1.786;2024-01-06T03:26:49;100567.97;;;15.90;43.46
53246;BME280;39569;51.090;-1.786;2024-01-06T03:29:16;100558.22;;;15.89;43.43
53246;BME280;39569;51.090;-1.786;2024-01-06T03:31:44;100561.03;;;16.13;43.70
53246;BME280;39569;51.090;-1.786;2024-01-06T03:34:11;100561.19;;;15.61;44.31
53246;BME280;39569;51.090;-1.786;2024-01-06T03:36:38;100565.53;;;15.68;44.11
53246;BME280;39569;51.090;-1.786;2024-01-06T03:39:05;100566.41;;;16.13;43.51
53246;BME280;39569;51.090;-1.786;2024-01-06T03:41:32;100559.28;;;15.81;43.48
53246;BME280;39569;51.090;-1.786;2024-01-06T03:43:58;100573.56;;;15.82;44.00
53246;BME280;39569;51.090;-1.786;2024-01-06T03:46:26;100569.19;;;15.94;43.43
53246;BME280;39569;51.090;-1.786;2024-01-06T03:48:54;100571.56;;;16.15;43.05
53246;BME280;39569;51.090;-1.786;2024-01-06T03:51:20;100580.59;;;15.89;43.41
53246;BME280;39569;51.090;-1.786;2024-01-06T03:53:48;100577.53;;;15.72;43.74
53246;BME280;39569;51.090;-1.786;2024-01-06T03:56:15;100584.16;;;15.77;43.15
53246;BME280;39569;51.090;-1.786;2024-01-06T03:58:41;100579.09;;;16.00;42.57
53246;BME280;39569;51.090;-1.786;2024-01-06T04:01:08;100593.63;;;15.99;42.51
53246;BME280;39569;51.090;-1.786;2024-01-06T04:03:35;100593.50;;;15.67;43.23
53246;BME280;39569;51.090;-1.786;2024-01-06T04:06:03;100593.41;;;16.00;43.00
53246;BME280;39569;51.090;-1.786;2024-01-06T04:08:30;100601.13;;;15.84;42.88
53246;BME280;39569;51.090;-1.786;2024-01-06T04:10:57;100600.09;;;15.78;43.01
53246;BME280;39569;51.090;-1.786;2024-01-06T04:13:23;100600.97;;;15.59;43.06
53246;BME280;39569;51.090;-1.786;2024-01-06T04:15:51;100608.22;;;15.71;42.88
53246;BME280;39569;51.090;-1.786;2024-01-06T04:18:17;100609.84;;;15.72;42.84
53246;BME280;39569;51.090;-1.786;2024-01-06T04:20:44;100609.25;;;15.64;42.74
53246;BME280;39569;51.090;-1.786;2024-01-06T04:23:12;100613.78;;;15.77;42.77
53246;BME280;39569;51.090;-1.786;2024-01-06T04:25:39;100613.41;;;15.01;43.82
53246;BME280;39569;51.090;-1.786;2024-01-06T04:28:06;100617.13;;;15.39;43.12
53246;BME280;39569;51.090;-1.786;2024-01-06T04:30:32;100619.19;;;15.37;43.18
53246;BME280;39569;51.090;-1.786;2024-01-06T04:32:59;100619.44;;;15.49;43.00
53246;BME280;39569;51.090;-1.786;2024-01-06T04:35:26;100620.41;;;15.35;42.92
53246;BME280;39569;51.090;-1.786;2024-01-06T04:37:52;100619.63;;;15.41;42.88
53246;BME280;39569;51.090;-1.786;2024-01-06T04:40:20;100626.03;;;15.46;43.53
53246;BME280;39569;51.090;-1.786;2024-01-06T04:42:47;100629.97;;;15.31;43.59
53246;BME280;39569;51.090;-1.786;2024-01-06T04:45:14;100623.94;;;15.35;43.30
53246;BME280;39569;51.090;-1.786;2024-01-06T04:47:40;100635.34;;;15.37;44.11
53246;BME280;39569;51.090;-1.786;2024-01-06T04:50:08;100632.81;;;15.82;43.37
53246;BME280;39569;51.090;-1.786;2024-01-06T04:52:34;100631.41;;;15.66;43.46
53246;BME280;39569;51.090;-1.786;2024-01-06T04:55:00;100635.16;;;15.52;43.74
53246;BME280;39569;51.090;-1.786;2024-01-06T04:57:29;100648.13;;;16.01;43.55
53246;BME280;39569;51.090;-1.786;2024-01-06T04:59:56;100643.19;;;15.78;43.24
53246;BME280;39569;51.090;-1.786;2024-01-06T05:02:22;100639.25;;;15.81;43.05
53246;BME280;39569;51.090;-1.786;2024-01-06T05:04:49;100637.81;;;15.78;43.45
53246;BME280;39569;51.090;-1.786;2024-01-06T05:07:16;100639.75;;;16.22;42.51
53246;BME280;39569;51.090;-1.786;2024-01-06T05:09:43;100644.56;;;16.13;42.35
53246;BME280;39569;51.090;-1.786;2024-01-06T05:12:09;100648.34;;;15.99;42.50
53246;BME280;39569;51.090;-1.786;2024-01-06T05:14:37;100648.09;;;16.07;42.62
53246;BME280;39569;51.090;-1.786;2024-01-06T05:17:04;100652.69;;;15.87;42.95
53246;BME280;39569;51.090;-1.786;2024-01-06T05:19:31;100650.66;;;15.76;42.80
53246;BME280;39569;51.090;-1.786;2024-01-06T05:21:58;100644.06;;;15.52;43.44
53246;BME280;39569;51.090;-1.786;2024-01-06T05:24:24;100655.03;;;15.57;43.32
53246;BME280;39569;51.090;-1.786;2024-01-06T05:26:51;100654.38;;;15.36;43.65
53246;BME280;39569;51.090;-1.786;2024-01-06T05:29:18;100655.66;;;15.59;43.25
53246;BME280;39569;51.090;-1.786;2024-01-06T05:31:46;100662.47;;;15.88;43.25
53246;BME280;39569;51.090;-1.786;2024-01-06T05:34:14;100678.44;;;15.50;43.65
53246;BME280;39569;51.090;-1.786;2024-01-06T05:36:41;100674.66;;;15.38;43.96
53246;BME280;39569;51.090;-1.786;2024-01-06T05:39:07;100673.47;;;15.60;43.68
53246;BME280;39569;51.090;-1.786;2024-01-06T05:41:37;100669.44;;;16.09;43.22
53246;BME280;39569;51.090;-1.786;2024-01-06T05:44:03;100681.72;;;15.72;43.58
53246;BME280;39569;51.090;-1.786;2024-01-06T05:46:30;100683.81;;;15.63;43.76
53246;BME280;39569;51.090;-1.786;2024-01-06T05:48:58;100682.31;;;16.07;43.22
53246;BME280;39569;51.090;-1.786;2024-01-06T05:51:25;100683.19;;;15.61;43.68
53246;BME280;39569;51.090;-1.786;2024-01-06T05:53:52;100682.53;;;15.79;42.87
53246;BME280;39569;51.090;-1.786;2024-01-06T05:56:22;100688.56;;;15.74;43.38
53246;BME280;39569;51.090;-1.786;2024-01-06T05:58:51;100692.09;;;15.68;43.00
53246;BME280;39569;51.090;-1.786;2024-01-06T06:01:18;100708.66;;;15.52;43.02
53246;BME280;39569;51.090;-1.786;2024-01-06T06:03:44;100711.56;;;15.70;43.10
53246;BME280;39569;51.090;-1.786;2024-01-06T06:06:13;100707.00;;;15.84;43.13
53246;BME280;39569;51.090;-1.786;2024-01-06T06:08:40;100716.09;;;16.03;43.23
53246;BME280;39569;51.090;-1.786;2024-01-06T06:11:07;100712.38;;;15.84;43.12
53246;BME280;39569;51.090;-1.786;2024-01-06T06:13:37;100720.47;;;15.71;43.44
53246;BME280;39569;51.090;-1.786;2024-01-06T06:16:04;100722.50;;;15.36;44.06
53246;BME280;39569;51.090;-1.786;2024-01-06T06:18:31;100738.81;;;15.09;44.70
53246;BME280;39569;51.090;-1.786;2024-01-06T06:20:58;100731.03;;;15.86;43.22
53246;BME280;39569;51.090;-1.786;2024-01-06T06:23:26;100738.66;;;16.02;43.20
53246;BME280;39569;51.090;-1.786;2024-01-06T06:25:53;100739.09;;;15.92;42.83
53246;BME280;39569;51.090;-1.786;2024-01-06T06:28:20;100750.09;;;15.97;42.63
53246;BME280;39569;51.090;-1.786;2024-01-06T06:30:46;100759.59;;;15.87;42.76
53246;BME280;39569;51.090;-1.786;2024-01-06T06:33:13;100761.72;;;15.71;42.85
53246;BME280;39569;51.090;-1.786;2024-01-06T06:35:40;100764.72;;;15.29;43.37
53246;BME280;39569;51.090;-1.786;2024-01-06T06:38:08;100765.81;;;15.61;42.86
53246;BME280;39569;51.090;-1.786;2024-01-06T06:40:36;100766.88;;;15.73;42.92
53246;BME280;39569;51.090;-1.786;2024-01-06T06:43:03;100773.38;;;15.18;43.28
53246;BME280;39569;51.090;-1.786;2024-01-06T06:45:29;100782.25;;;15.06;43.46
53246;BME280;39569;51.090;-1.786;2024-01-06T06:47:56;100785.97;;;15.05;43.16
53246;BME280;39569;51.090;-1.786;2024-01-06T06:50:23;100791.56;;;15.10;43.29
53246;BME280;39569;51.090;-1.786;2024-01-06T06:52:50;100790.09;;;15.07;43.06
53246;BME280;39569;51.090;-1.786;2024-01-06T06:55:17;100797.84;;;15.23;42.64
53246;BME280;39569;51.090;-1.786;2024-01-06T06:57:46;100799.81;;;15.68;42.41
53246;BME280;39569;51.090;-1.786;2024-01-06T07:00:13;100807.97;;;15.28;42.30
53246;BME280;39569;51.090;-1.786;2024-01-06T07:02:40;100803.72;;;14.93;42.65
53246;BME280;39569;51.090;-1.786;2024-01-06T07:05:07;100808.09;;;15.00;42.83
53246;BME280;39569;51.090;-1.786;2024-01-06T07:07:34;100818.50;;;14.69;43.35
53246;BME280;39569;51.090;-1.786;2024-01-06T07:10:01;100822.25;;;14.74;43.15
53246;BME280;39569;51.090;-1.786;2024-01-06T07:12:28;100827.47;;;14.89;42.83
53246;BME280;39569;51.090;-1.786;2024-01-06T07:14:57;100816.78;;;15.02;43.12
53246;BME280;39569;51.090;-1.786;2024-01-06T07:17:24;100820.78;;;14.38;43.55
53246;BME280;39569;51.090;-1.786;2024-01-06T07:19:51;100826.88;;;14.25;44.50
53246;BME280;39569;51.090;-1.786;2024-01-06T07:22:19;100822.84;;;14.36;43.98
53246;BME280;39569;51.090;-1.786;2024-01-06T07:24:45;100829.00;;;14.30;44.20
53246;BME280;39569;51.090;-1.786;2024-01-06T07:27:12;100835.63;;;14.34;44.19
53246;BME280;39569;51.090;-1.786;2024-01-06T07:29:40;100834.00;;;14.12;44.80
53246;BME280;39569;51.090;-1.786;2024-01-06T07:32:08;100836.91;;;14.17;45.34
53246;BME280;39569;51.090;-1.786;2024-01-06T07:34:35;100851.81;;;13.92;45.55
53246;BME280;39569;51.090;-1.786;2024-01-06T07:37:01;100859.03;;;14.40;44.09
53246;BME280;39569;51.090;-1.786;2024-01-06T07:39:28;100864.25;;;14.48;43.90
53246;BME280;39569;51.090;-1.786;2024-01-06T07:41:55;100869.50;;;14.28;44.55
53246;BME280;39569;51.090;-1.786;2024-01-06T07:44:21;100874.94;;;13.93;45.60
53246;BME280;39569;51.090;-1.786;2024-01-06T07:46:50;100878.06;;;14.38;44.54
53246;BME280;39569;51.090;-1.786;2024-01-06T07:49:18;100884.22;;;14.66;44.19
53246;BME280;39569;51.090;-1.786;2024-01-06T07:51:45;100887.50;;;14.13;44.98
53246;BME280;39569;51.090;-1.786;2024-01-06T07:54:12;100894.41;;;14.43;44.24
53246;BME280;39569;51.090;-1.786;2024-01-06T07:56:39;100885.81;;;14.54;43.85
53246;BME280;39569;51.090;-1.786;2024-01-06T07:59:05;100897.09;;;14.43;44.04
53246;BME280;39569;51.090;-1.786;2024-01-06T08:01:32;100903.50;;;14.21;44.68
53246;BME280;39569;51.090;-1.786;2024-01-06T08:03:59;100901.16;;;14.12;45.33
53246;BME280;39569;51.090;-1.786;2024-01-06T08:06:27;100908.31;;;14.05;45.40
53246;BME280;39569;51.090;-1.786;2024-01-06T08:08:54;100916.50;;;13.61;46.12
53246;BME280;39569;51.090;-1.786;2024-01-06T08:11:21;100916.75;;;13.80;46.05
53246;BME280;39569;51.090;-1.786;2024-01-06T08:13:48;100924.13;;;13.57;46.12
53246;BME280;39569;51.090;-1.786;2024-01-06T08:16:14;100926.28;;;14.04;45.38
53246;BME280;39569;51.090;-1.786;2024-01-06T08:18:41;100932.72;;;14.10;44.77
53246;BME280;39569;51.090;-1.786;2024-01-06T08:21:08;100945.84;;;13.77;45.73
53246;BME280;39569;51.090;-1.786;2024-01-06T08:23:36;100948.38;;;14.42;45.02
53246;BME280;39569;51.090;-1.786;2024-01-06T08:26:03;100946.28;;;14.02;45.59
53246;BME280;39569;51.090;-1.786;2024-01-06T08:28:31;100955.50;;;14.14;45.41
53246;BME280;39569;51.090;-1.786;2024-01-06T08:30:58;100955.91;;;14.53;44.59
53246;BME280;39569;51.090;-1.786;2024-01-06T08:33:24;100972.56;;;14.42;44.92
53246;BME280;39569;51.090;-1.786;2024-01-06T08:35:51;100961.28;;;14.53;44.58
53246;BME280;39569;51.090;-1.786;2024-01-06T08:38:18;100973.28;;;14.57;44.17
53246;BME280;39569;51.090;-1.786;2024-01-06T08:40:46;100973.28;;;15.12;43.40
53246;BME280;39569;51.090;-1.786;2024-01-06T08:43:13;100967.22;;;15.04;43.16
53246;BME280;39569;51.090;-1.786;2024-01-06T08:45:40;100982.59;;;14.82;43.58
53246;BME280;39569;51.090;-1.786;2024-01-06T08:48:07;100974.81;;;15.28;42.46
53246;BME280;39569;51.090;-1.786;2024-01-06T08:50:34;100981.66;;;14.96;43.24
53246;BME280;39569;51.090;-1.786;2024-01-06T08:53:01;100991.34;;;14.63;43.80
53246;BME280;39569;51.090;-1.786;2024-01-06T08:55:27;100985.56;;;14.03;45.02
53246;BME280;39569;51.090;-1.786;2024-01-06T08:57:55;100996.72;;;14.63;44.22
53246;BME280;39569;51.090;-1.786;2024-01-06T09:00:22;100997.56;;;14.42;44.15
53246;BME280;39569;51.090;-1.786;2024-01-06T09:02:49;101008.13;;;14.44;44.27
53246;BME280;39569;51.090;-1.786;2024-01-06T09:05:16;101006.97;;;14.53;43.96
53246;BME280;39569;51.090;-1.786;2024-01-06T09:07:42;101019.38;;;14.33;44.62
53246;BME280;39569;51.090;-1.786;2024-01-06T09:10:14;101021.22;;;14.74;43.67
53246;BME280;39569;51.090;-1.786;2024-01-06T09:12:41;101026.47;;;14.83;43.80
53246;BME280;39569;51.090;-1.786;2024-01-06T09:15:08;101034.69;;;14.81;44.50
53246;BME280;39569;51.090;-1.786;2024-01-06T09:17:35;101034.22;;;14.29;45.57
53246;BME280;39569;51.090;-1.786;2024-01-06T09:20:02;101041.31;;;14.57;45.21
53246;BME280;39569;51.090;-1.786;2024-01-06T09:22:29;101039.19;;;15.23;43.60
53246;BME280;39569;51.090;-1.786;2024-01-06T09:24:57;101056.84;;;15.04;44.07
53246;BME280;39569;51.090;-1.786;2024-01-06T09:27:24;101044.16;;;15.53;43.45
53246;BME280;39569;51.090;-1.786;2024-01-06T09:29:51;101048.31;;;15.97;42.59
53246;BME280;39569;51.090;-1.786;2024-01-06T09:32:19;101052.44;;;16.59;41.89
53246;BME280;39569;51.090;-1.786;2024-01-06T09:34:48;101050.16;;;15.96;42.59
53246;BME280;39569;51.090;-1.786;2024-01-06T09:37:15;101054.28;;;15.92;42.81
53246;BME280;39569;51.090;-1.786;2024-01-06T09:39:41;101060.19;;;16.15;42.10
53246;BME280;39569;51.090;-1.786;2024-01-06T09:42:08;101062.91;;;16.28;42.23
53246;BME280;39569;51.090;-1.786;2024-01-06T09:44:36;101061.56;;;16.52;41.79
53246;BME280;39569;51.090;-1.786;2024-01-06T09:47:03;101064.41;;;16.44;42.33
53246;BME280;39569;51.090;-1.786;2024-01-06T09:49:34;101074.44;;;17.09;41.37
53246;BME280;39569;51.090;-1.786;2024-01-06T09:52:10;101073.41;;;16.90;41.70
53246;BME280;39569;51.090;-1.786;2024-01-06T09:54:43;101079.88;;;17.02;41.54
53246;BME280;39569;51.090;-1.786;2024-01-06T09:57:12;101071.34;;;17.05;41.32
53246;BME280;39569;51.090;-1.786;2024-01-06T09:59:40;101076.09;;;17.29;41.02
53246;BME280;39569;51.090;-1.786;2024-01-06T10:02:10;101072.13;;;17.71;40.52
53246;BME280;39569;51.090;-1.786;2024-01-06T10:04:40;101085.25;;;17.48;41.15
53246;BME280;39569;51.090;-1.786;2024-01-06T10:07:07;101100.63;;;17.08;41.62
53246;BME280;39569;51.090;-1.786;2024-01-06T10:09:37;101099.59;;;17.48;40.65
53246;BME280;39569;51.090;-1.786;2024-01-06T10:12:05;101095.34;;;17.92;40.57
53246;BME280;39569;51.090;-1.786;2024-01-06T10:14:32;101099.66;;;18.06;40.19
53246;BME280;39569;51.090;-1.786;2024-01-06T10:16:58;101094.81;;;18.14;39.95
53246;BME280;39569;51.090;-1.786;2024-01-06T10:19:25;101097.41;;;18.47;39.54
53246;BME280;39569;51.090;-1.786;2024-01-06T10:21:54;101109.00;;;18.54;39.38
53246;BME280;39569;51.090;-1.786;2024-01-06T10:24:21;101107.41;;;18.40;39.25
53246;BME280;39569;51.090;-1.786;2024-01-06T10:26:48;101107.09;;;18.92;38.48
53246;BME280;39569;51.090;-1.786;2024-01-06T10:29:15;101112.13;;;18.89;38.77
53246;BME280;39569;51.090;-1.786;2024-01-06T10:31:42;101112.78;;;18.84;38.14
53246;BME280;39569;51.090;-1.786;2024-01-06T10:34:09;101113.16;;;19.43;37.65
53246;BME280;39569;51.090;-1.786;2024-01-06T10:36:36;101107.25;;;20.43;36.25
53246;BME280;39569;51.090;-1.786;2024-01-06T10:39:04;101104.91;;;20.11;35.42
53246;BME280;39569;51.090;-1.786;2024-01-06T10:41:33;101106.75;;;19.99;36.17
53246;BME280;39569;51.090;-1.786;2024-01-06T10:44:01;101116.31;;;19.40;37.00
53246;BME280;39569;51.090;-1.786;2024-01-06T10:46:30;101107.63;;;19.75;36.35
53246;BME280;39569;51.090;-1.786;2024-01-06T10:48:58;101100.38;;;22.16;33.02
53246;BME280;39569;51.090;-1.786;2024-01-06T10:51:27;101096.47;;;22.12;31.40
53246;BME280;39569;51.090;-1.786;2024-01-06T10:53:57;101101.19;;;23.51;30.16
53246;BME280;39569;51.090;-1.786;2024-01-06T10:56:25;101097.72;;;23.93;29.49
53246;BME280;39569;51.090;-1.786;2024-01-06T10:58:53;101103.13;;;24.10;29.77
53246;BME280;39569;51.090;-1.786;2024-01-06T11:01:22;101095.84;;;24.42;29.11
53246;BME280;39569;51.090;-1.786;2024-01-06T11:03:50;101097.84;;;25.31;28.18
53246;BME280;39569;51.090;-1.786;2024-01-06T11:06:18;101096.94;;;25.58;26.82
53246;BME280;39569;51.090;-1.786;2024-01-06T11:08:49;101096.56;;;25.86;26.89
53246;BME280;39569;51.090;-1.786;2024-01-06T11:11:18;101092.44;;;25.78;27.17
53246;BME280;39569;51.090;-1.786;2024-01-06T11:13:46;101092.91;;;26.22;26.64
53246;BME280;39569;51.090;-1.786;2024-01-06T11:16:33;101091.88;;;25.81;27.08
53246;BME280;39569;51.090;-1.786;2024-01-06T11:19:00;101092.22;;;25.90;27.98
53246;BME280;39569;51.090;-1.786;2024-01-06T11:21:27;101094.94;;;24.80;27.76
53246;BME280;39569;51.090;-1.786;2024-01-06T11:24:23;101096.69;;;25.27;27.28
53246;BME280;39569;51.090;-1.786;2024-01-06T11:26:52;101102.66;;;25.19;27.94
53246;BME280;39569;51.090;-1.786;2024-01-06T11:29:23;101102.28;;;25.06;28.45
53246;BME280;39569;51.090;-1.786;2024-01-06T11:32:19;101107.75;;;25.06;28.64
53246;BME280;39569;51.090;-1.786;2024-01-06T11:34:49;101100.25;;;25.23;28.88
53246;BME280;39569;51.090;-1.786;2024-01-06T11:37:23;101106.47;;;24.60;28.78
53246;BME280;39569;51.090;-1.786;2024-01-06T11:39:50;101120.25;;;24.05;29.73
53246;BME280;39569;51.090;-1.786;2024-01-06T11:42:18;101113.97;;;24.48;28.79
53246;BME280;39569;51.090;-1.786;2024-01-06T11:44:50;101116.09;;;24.19;29.65
53246;BME280;39569;51.090;-1.786;2024-01-06T11:47:18;101122.41;;;24.03;29.38
53246;BME280;39569;51.090;-1.786;2024-01-06T11:49:53;101106.91;;;25.74;28.27
53246;BME280;39569;51.090;-1.786;2024-01-06T11:52:21;101109.22;;;24.65;28.96
53246;BME280;39569;51.090;-1.786;2024-01-06T11:54:47;101103.44;;;24.35;29.21
53246;BME280;39569;51.090;-1.786;2024-01-06T11:57:15;101104.63;;;24.97;29.18
53246;BME280;39569;51.090;-1.786;2024-01-06T11:59:41;101100.94;;;23.02;31.06
53246;BME280;39569;51.090;-1.786;2024-01-06T12:02:12;101098.19;;;24.28;29.98
53246;BME280;39569;51.090;-1.786;2024-01-06T12:04:39;101102.88;;;24.11;30.01
53246;BME280;39569;51.090;-1.786;2024-01-06T12:07:08;101096.88;;;23.93;29.48
53246;BME280;39569;51.090;-1.786;2024-01-06T12:09:35;101096.13;;;24.41;29.83
53246;BME280;39569;51.090;-1.786;2024-01-06T12:12:03;101094.88;;;24.26;29.67
53246;BME280;39569;51.090;-1.786;2024-01-06T12:14:31;101099.78;;;22.14;31.75
53246;BME280;39569;51.090;-1.786;2024-01-06T12:16:58;101098.97;;;22.02;32.77
53246;BME280;39569;51.090;-1.786;2024-01-06T12:19:30;101098.19;;;22.18;31.91
53246;BME280;39569;51.090;-1.786;2024-01-06T12:21:57;101099.69;;;22.93;31.29
53246;BME280;39569;51.090;-1.786;2024-01-06T12:24:27;101099.94;;;22.35;32.87
53246;BME280;39569;51.090;-1.786;2024-01-06T12:26:55;101097.16;;;22.19;32.41
53246;BME280;39569;51.090;-1.786;2024-01-06T12:29:22;101108.34;;;21.60;33.09
53246;BME280;39569;51.090;-1.786;2024-01-06T12:31:49;101103.19;;;22.49;32.01
53246;BME280;39569;51.090;-1.786;2024-01-06T12:34:16;101108.88;;;22.19;32.36
53246;BME280;39569;51.090;-1.786;2024-01-06T12:36:44;101107.78;;;22.20;33.15
53246;BME280;39569;51.090;-1.786;2024-01-06T12:39:12;101112.00;;;21.77;33.62
53246;BME280;39569;51.090;-1.786;2024-01-06T12:41:40;101118.56;;;22.27;33.08